Terminal Aerodrome Forecast
Issued by NWS Mt. Holly, NJ

Current Version | Previous Version | Text Only | Print | Product List | Glossary On
Versions: 1 2 3 4 5 6 7 8 9 10 11 12 13 14 15 16 17 18 19 20 21 22 23 24 25 26 27 28 29 30 31 32 33 34 35 36 37 38 39 40 41 42
499
FTAK31 PANC 231350 AAB
TAFABE
TAF AMD
PABE 231350Z 2314/2412 19008KT 1/4SM FG OVC001
      TEMPO 2314/2317 2SM BR BKN004
     FM231700 14008KT P6SM BKN015
     FM231900 14010G18KT P6SM SCT050 BKN100
     FM240600 11015KT P6SM VCSH BKN035 OVC050=

USA.gov is the U.S. government's official web portal to all federal, state and local government web resources and services.